createdAt,value
2024-02-19T00:00:43.225Z,97779.66
2024-02-19T00:03:30.187Z,97780.69
2024-02-19T00:06:17.050Z,97777.19
2024-02-19T00:09:05.072Z,97780.69
2024-02-19T00:11:51.961Z,97774.69
2024-02-19T00:14:38.858Z,97767.72
2024-02-19T00:17:25.716Z,97773.06
2024-02-19T00:20:12.647Z,97776.72
2024-02-19T00:22:59.650Z,97768.88
2024-02-19T00:25:46.543Z,97765.59
2024-02-19T00:28:33.364Z,97767.25
2024-02-19T00:31:20.722Z,97770.09
2024-02-19T00:36:55.010Z,97760.44
2024-02-19T00:39:41.943Z,97765.94
2024-02-19T00:42:29.243Z,97759.78
2024-02-19T00:45:16.176Z,97772.31
2024-02-19T00:48:03.915Z,97765.28
2024-02-19T00:50:50.858Z,97763.63
2024-02-19T00:53:41.109Z,97767.31
2024-02-19T00:56:28.065Z,97761.16
2024-02-19T00:59:14.913Z,97764.78
2024-02-19T01:02:01.839Z,97772.78
2024-02-19T01:04:50.477Z,97770.31
2024-02-19T01:07:38.294Z,97763.31
2024-02-19T01:10:25.194Z,97772.31
2024-02-19T01:13:12.258Z,97763.47
2024-02-19T01:15:59.173Z,97758.34
2024-02-19T01:18:46.760Z,97766.34
2024-02-19T01:21:33.777Z,97755.03
2024-02-19T01:24:20.598Z,97751.53
2024-02-19T01:27:11.438Z,97738.19
2024-02-19T01:29:58.384Z,97750.72
2024-02-19T01:32:45.641Z,97736.72
2024-02-19T01:35:34.043Z,97731.59
2024-02-19T01:38:23.170Z,97725.44
2024-02-19T01:41:10.031Z,97731.78
2024-02-19T01:43:58.368Z,97731.94
2024-02-19T01:46:45.588Z,97731.09
2024-02-19T01:49:32.881Z,97726.78
2024-02-19T01:52:20.186Z,97729.63
2024-02-19T01:55:07.406Z,97731.47
2024-02-19T01:57:54.753Z,97719.16
2024-02-19T02:00:42.143Z,97735.13
2024-02-19T02:03:29.861Z,97727.31
2024-02-19T02:06:16.836Z,97731.81
2024-02-19T02:09:04.764Z,97730.16
2024-02-19T02:11:51.607Z,97727.50
2024-02-19T02:14:38.529Z,97726.84
2024-02-19T02:17:25.584Z,97726.00
2024-02-19T02:20:13.422Z,97723.34
2024-02-19T02:23:00.653Z,97723.53
2024-02-19T02:25:48.903Z,97719.22
2024-02-19T02:28:35.775Z,97723.69
2024-02-19T02:31:22.776Z,97721.41
2024-02-19T02:34:09.735Z,97723.88
2024-02-19T02:36:57.733Z,97721.41
2024-02-19T02:39:44.622Z,97724.06
2024-02-19T02:42:31.680Z,97708.44
2024-02-19T02:45:18.656Z,97721.56
2024-02-19T02:48:05.978Z,97727.91
2024-02-19T02:50:52.908Z,97713.78
2024-02-19T02:53:39.743Z,97715.63
2024-02-19T02:56:26.631Z,97727.25
2024-02-19T02:59:13.500Z,97708.78
2024-02-19T03:02:00.533Z,97713.31
2024-02-19T03:04:47.617Z,97721.28
2024-02-19T03:07:34.796Z,97708.13
2024-02-19T03:10:21.885Z,97704.66
2024-02-19T03:13:08.826Z,97705.84
2024-02-19T03:15:55.727Z,97707.66
2024-02-19T03:18:44.448Z,97705.00
2024-02-19T03:21:31.462Z,97697.19
2024-02-19T03:24:18.382Z,97695.53
2024-02-19T03:27:05.386Z,97703.53
2024-02-19T03:29:52.291Z,97700.06
2024-02-19T03:32:39.344Z,97701.03
2024-02-19T03:35:26.456Z,97699.38
2024-02-19T03:38:13.723Z,97707.56
2024-02-19T03:41:00.552Z,97708.53
2024-02-19T03:43:47.383Z,97711.22
2024-02-19T03:46:34.207Z,97695.22
2024-02-19T03:49:21.129Z,97703.41
2024-02-19T03:52:08.096Z,97707.09
2024-02-19T03:54:56.043Z,97700.91
2024-02-19T03:57:43.034Z,97703.56
2024-02-19T04:00:31.651Z,97708.25
2024-02-19T04:03:18.563Z,97702.94
2024-02-19T04:06:05.585Z,97703.09
2024-02-19T04:08:52.458Z,97712.75
2024-02-19T04:11:39.538Z,97711.09
2024-02-19T04:14:26.397Z,97705.13
2024-02-19T04:17:13.245Z,97703.28
2024-02-19T04:20:00.219Z,97693.66
2024-02-19T04:22:47.069Z,97699.97
2024-02-19T04:25:33.974Z,97719.59
2024-02-19T04:28:20.826Z,97711.63
2024-02-19T04:31:07.832Z,97715.28
2024-02-19T04:33:54.862Z,97708.31
2024-02-19T04:36:42.240Z,97709.31
2024-02-19T04:39:29.229Z,97710.50
2024-02-19T04:42:16.382Z,97720.16
2024-02-19T04:45:03.359Z,97714.16
2024-02-19T04:47:50.302Z,97720.31
2024-02-19T04:50:37.192Z,97727.66
2024-02-19T04:53:24.052Z,97711.69
2024-02-19T04:56:15.796Z,97730.50
2024-02-19T04:59:03.265Z,97724.31
2024-02-19T05:01:52.011Z,97727.00
2024-02-19T05:04:39.126Z,97721.03
2024-02-19T05:07:26.149Z,97726.50
2024-02-19T05:10:14.272Z,97720.34
2024-02-19T05:13:01.225Z,97727.53
2024-02-19T05:15:48.187Z,97730.38
2024-02-19T05:18:35.343Z,97727.03
2024-02-19T05:21:22.504Z,97722.53
2024-02-19T05:24:14.392Z,97715.56
2024-02-19T05:27:01.209Z,97728.06
2024-02-19T05:29:48.048Z,97717.56
2024-02-19T05:32:34.938Z,97715.91
2024-02-19T05:35:22.189Z,97714.25
2024-02-19T05:38:09.352Z,97722.25
2024-02-19T05:40:56.193Z,97724.25
2024-02-19T05:43:43.825Z,97714.59
2024-02-19T05:46:32.313Z,97717.28
2024-02-19T05:49:19.844Z,97717.47
2024-02-19T05:52:06.848Z,97724.59
2024-02-19T05:54:53.846Z,97728.25
2024-02-19T05:57:40.838Z,97730.09
2024-02-19T06:00:27.739Z,97733.78
2024-02-19T06:03:14.713Z,97729.44
2024-02-19T06:06:01.674Z,97729.63
2024-02-19T06:08:48.534Z,97735.13
2024-02-19T06:11:42.207Z,97731.59
2024-02-19T06:14:29.076Z,97730.78
2024-02-19T06:17:16.296Z,97728.31
2024-02-19T06:20:03.355Z,97725.66
2024-02-19T06:22:50.252Z,97733.78
2024-02-19T06:25:37.147Z,97739.09
2024-02-19T06:28:24.106Z,97734.97
2024-02-19T06:31:11.061Z,97747.31
2024-02-19T06:33:59.752Z,97750.66
2024-02-19T06:36:47.144Z,97752.78
2024-02-19T06:39:36.324Z,97761.94
2024-02-19T06:42:23.069Z,97760.56
2024-02-19T06:45:10.123Z,97763.91
2024-02-19T06:47:57.218Z,97767.41
2024-02-19T06:50:44.131Z,97767.41
2024-02-19T06:53:31.017Z,97768.38
2024-02-19T06:56:18.002Z,97774.72
2024-02-19T06:59:05.036Z,97778.38
2024-02-19T07:01:52.387Z,97786.56
2024-02-19T07:04:41.329Z,97793.88
2024-02-19T07:07:28.740Z,97794.03
2024-02-19T07:10:15.759Z,97799.53
2024-02-19T07:13:02.773Z,97798.69
2024-02-19T07:15:49.652Z,97797.19
2024-02-19T07:18:36.658Z,97810.50
2024-02-19T07:21:23.985Z,97812.53
2024-02-19T07:24:10.803Z,97812.53
2024-02-19T07:26:58.614Z,97816.16
2024-02-19T07:29:45.516Z,97818.00
2024-02-19T07:32:32.537Z,97818.19
2024-02-19T07:35:19.582Z,97820.00
2024-02-19T07:38:06.578Z,97823.66
2024-02-19T07:40:53.442Z,97822.66
2024-02-19T07:43:40.555Z,97820.16
2024-02-19T07:46:27.379Z,97819.34
2024-02-19T07:49:14.665Z,97830.97
2024-02-19T07:52:01.976Z,97816.84
2024-02-19T07:54:48.886Z,97817.03
2024-02-19T07:57:35.782Z,97812.72
2024-02-19T08:00:22.865Z,97812.22
2024-02-19T08:03:09.735Z,97824.00
2024-02-19T08:05:56.965Z,97821.00
2024-02-19T08:08:44.417Z,97829.66
2024-02-19T08:11:31.457Z,97825.97
2024-02-19T08:14:19.043Z,97833.97
2024-02-19T08:17:05.945Z,97841.13
2024-02-19T08:19:52.897Z,97845.59
2024-02-19T08:22:40.871Z,97850.25
2024-02-19T08:25:28.755Z,97857.41
2024-02-19T08:28:15.693Z,97865.38
2024-02-19T08:31:02.651Z,97867.41
2024-02-19T08:33:49.610Z,97869.25
2024-02-19T08:36:38.398Z,97875.38
2024-02-19T08:39:25.495Z,97876.38
2024-02-19T08:42:12.434Z,97878.19
2024-02-19T08:44:59.470Z,97876.53
2024-02-19T08:47:46.397Z,97874.91
2024-02-19T08:50:33.278Z,97892.50
2024-02-19T08:53:20.722Z,97887.19
2024-02-19T08:56:07.651Z,97892.50
2024-02-19T08:58:54.582Z,97902.97
2024-02-19T09:01:41.601Z,97904.81
2024-02-19T09:04:28.667Z,97913.47
2024-02-19T09:07:15.894Z,97918.59
2024-02-19T09:10:03.347Z,97913.94
2024-02-19T09:12:50.416Z,97943.03
2024-02-19T09:15:37.463Z,97938.53
2024-02-19T09:18:24.421Z,97938.53
2024-02-19T09:21:11.317Z,97941.06
2024-02-19T09:23:58.217Z,97944.53
2024-02-19T09:26:45.091Z,97948.22
2024-02-19T09:29:35.576Z,97952.53
2024-02-19T09:32:23.804Z,97948.34
2024-02-19T09:35:10.798Z,97949.03
2024-02-19T09:37:57.792Z,97944.53
2024-02-19T09:40:48.584Z,97947.22
2024-02-19T09:43:35.534Z,97951.84
2024-02-19T09:46:24.185Z,97951.53
2024-02-19T09:49:11.790Z,97958.84
2024-02-19T09:52:02.036Z,97947.22
2024-02-19T09:54:50.086Z,97951.69
2024-02-19T09:57:37.334Z,97964.00
2024-02-19T10:00:24.600Z,97973.00
2024-02-19T10:03:12.277Z,97967.47
2024-02-19T10:05:59.306Z,97975.66
2024-02-19T10:08:46.511Z,97969.31
2024-02-19T10:11:40.496Z,97982.47
2024-02-19T10:14:28.149Z,97982.63
2024-02-19T10:17:22.334Z,97981.63
2024-02-19T10:20:11.770Z,97977.31
2024-02-19T10:22:59.083Z,97985.13
2024-02-19T10:25:46.612Z,97977.97
2024-02-19T10:28:35.049Z,97992.94
2024-02-19T10:31:22.613Z,97992.94
2024-02-19T10:34:14.801Z,97995.59
2024-02-19T10:37:04.498Z,97998.25
2024-02-19T10:39:51.558Z,98005.25
2024-02-19T10:42:39.066Z,98007.91
2024-02-19T10:45:26.169Z,98007.06
2024-02-19T10:48:14.425Z,98007.91
2024-02-19T10:51:05.754Z,98015.06
2024-02-19T10:54:03.275Z,98013.22
2024-02-19T10:56:51.389Z,98020.38
2024-02-19T10:59:40.127Z,98028.34
2024-02-19T11:02:27.591Z,98030.19
2024-02-19T11:05:14.652Z,98030.19
2024-02-19T11:08:05.237Z,98028.34
2024-02-19T11:10:56.007Z,98025.69
2024-02-19T11:13:46.729Z,98031.84
2024-02-19T11:16:34.965Z,98030.19
2024-02-19T11:19:22.116Z,98039.00
2024-02-19T11:22:11.261Z,98030.19
2024-02-19T11:24:58.842Z,98038.19
2024-02-19T11:27:50.052Z,98033.69
2024-02-19T11:30:36.949Z,98036.34
2024-02-19T11:33:23.814Z,98036.34
2024-02-19T11:36:10.650Z,98025.69
2024-02-19T11:38:58.104Z,98031.84
2024-02-19T11:41:45.097Z,98029.19
2024-02-19T11:44:32.481Z,98019.53
2024-02-19T11:47:19.364Z,98022.88
2024-02-19T11:50:09.703Z,98017.56
2024-02-19T11:52:59.383Z,98022.03
2024-02-19T11:55:46.437Z,98024.69
2024-02-19T11:58:33.611Z,98021.19
2024-02-19T12:01:22.093Z,98018.53
2024-02-19T12:04:09.209Z,98013.22
2024-02-19T12:06:56.240Z,98001.59
2024-02-19T12:09:44.517Z,98004.41
2024-02-19T12:12:34.645Z,97994.91
2024-02-19T12:15:21.573Z,97995.28
2024-02-19T12:18:08.518Z,97998.25
2024-02-19T12:20:55.630Z,97992.25
2024-02-19T12:23:43.799Z,98002.25
2024-02-19T12:26:30.611Z,97988.09
2024-02-19T12:29:17.447Z,97985.44
2024-02-19T12:32:04.669Z,97983.13
2024-02-19T12:34:51.742Z,97981.78
2024-02-19T12:37:38.700Z,97975.97
2024-02-19T12:40:25.698Z,97975.31
2024-02-19T12:43:12.891Z,97966.16
2024-02-19T12:46:00.370Z,97968.63
2024-02-19T12:48:47.447Z,97971.63
2024-02-19T12:51:35.009Z,97970.13
2024-02-19T12:54:22.204Z,97970.59
2024-02-19T12:57:09.674Z,97971.09
2024-02-19T12:59:58.403Z,97980.59
2024-02-19T13:02:45.417Z,97982.25
2024-02-19T13:05:32.505Z,97984.09
2024-02-19T13:08:19.393Z,97990.22
2024-02-19T13:11:06.342Z,97993.72
2024-02-19T13:13:53.235Z,97993.09
2024-02-19T13:16:40.463Z,97993.22
2024-02-19T13:19:27.492Z,97997.72
2024-02-19T13:22:14.591Z,97996.91
2024-02-19T13:25:01.554Z,97997.91
2024-02-19T13:27:48.439Z,97992.91
2024-02-19T13:30:35.302Z,98001.91
2024-02-19T13:33:22.781Z,97987.59
2024-02-19T13:36:10.096Z,97981.94
2024-02-19T13:38:57.140Z,97994.91
2024-02-19T13:41:44.071Z,98001.72
2024-02-19T13:44:31.203Z,97992.56
2024-02-19T13:47:18.441Z,98000.38
2024-02-19T13:50:06.391Z,98003.88
2024-02-19T13:52:54.076Z,97998.38
2024-02-19T13:55:41.095Z,98002.69
2024-02-19T13:58:29.284Z,98012.38
2024-02-19T14:01:17.902Z,98006.03
2024-02-19T14:04:05.151Z,98002.38
2024-02-19T14:06:52.423Z,97999.56
2024-02-19T14:09:39.280Z,98002.38
2024-02-19T14:12:26.140Z,98001.53
2024-02-19T14:15:13.009Z,98001.53
2024-02-19T14:18:00.062Z,97997.03
2024-02-19T14:20:46.924Z,97998.03
2024-02-19T14:23:33.838Z,98003.19
2024-02-19T14:26:29.699Z,98005.84
2024-02-19T14:29:16.812Z,98012.00
2024-02-19T14:32:05.117Z,98005.03
2024-02-19T14:34:52.840Z,98006.69
2024-02-19T14:37:41.499Z,98013.84
2024-02-19T14:40:28.691Z,98019.34
2024-02-19T14:43:15.639Z,98010.53
2024-02-19T14:46:05.914Z,98006.03
2024-02-19T14:48:54.801Z,98004.38
2024-02-19T14:51:41.729Z,98006.03
2024-02-19T14:54:29.400Z,97995.38
2024-02-19T14:57:16.301Z,98001.72
2024-02-19T15:00:11.008Z,98003.38
2024-02-19T15:02:58.103Z,98002.53
2024-02-19T15:05:45.047Z,98006.03
2024-02-19T15:08:33.030Z,98000.72
2024-02-19T15:11:20.366Z,98006.88
2024-02-19T15:14:07.971Z,98011.38
2024-02-19T15:16:54.872Z,98007.69
2024-02-19T15:19:42.122Z,98008.53
2024-02-19T15:22:29.157Z,98013.69
2024-02-19T15:25:16.159Z,98004.88
2024-02-19T15:28:03.355Z,98008.19
2024-02-19T15:30:50.343Z,98010.84
2024-02-19T15:33:37.424Z,98015.34
2024-02-19T15:36:24.371Z,98010.69
2024-02-19T15:39:11.228Z,98008.03
2024-02-19T15:41:58.178Z,98008.03
2024-02-19T15:44:46.857Z,98016.03
2024-02-19T15:47:34.559Z,98020.50
2024-02-19T15:50:22.020Z,98015.16
2024-02-19T15:53:21.817Z,98017.84
2024-02-19T15:56:15.132Z,98025.81
2024-02-19T15:59:02.053Z,98015.34
2024-02-19T16:01:49.045Z,98013.69
2024-02-19T16:04:35.988Z,98015.53
2024-02-19T16:07:25.495Z,98013.84
2024-02-19T16:10:14.680Z,98015.69
2024-02-19T16:13:01.654Z,98017.50
2024-02-19T16:15:48.564Z,98014.03
2024-02-19T16:18:35.860Z,98016.69
2024-02-19T16:21:22.793Z,98005.22
2024-02-19T16:24:11.672Z,98006.19
2024-02-19T16:26:58.509Z,97992.06
2024-02-19T16:29:46.349Z,98000.22
2024-02-19T16:32:34.205Z,97996.88
2024-02-19T16:35:21.275Z,98004.03
2024-02-19T16:38:08.158Z,98000.56
2024-02-19T16:40:56.721Z,97994.41
2024-02-19T16:43:43.672Z,97991.75
2024-02-19T16:46:30.811Z,97987.41
2024-02-19T16:49:17.899Z,97997.22
2024-02-19T16:52:05.179Z,98000.88
2024-02-19T16:54:52.864Z,98001.91
2024-02-19T16:57:39.749Z,98013.06
2024-02-19T17:00:26.627Z,98009.22
2024-02-19T17:03:16.607Z,98009.41
2024-02-19T17:06:04.558Z,98014.88
2024-02-19T17:08:51.593Z,98017.53
2024-02-19T17:11:38.458Z,98013.22
2024-02-19T17:14:25.792Z,98016.72
2024-02-19T17:17:12.971Z,98022.03
2024-02-19T17:20:00.822Z,98016.88
2024-02-19T17:22:48.011Z,98021.22
2024-02-19T17:25:36.031Z,98014.06
2024-02-19T17:28:23.610Z,98016.72
2024-02-19T17:31:12.332Z,98011.38
2024-02-19T17:33:59.457Z,98009.56
2024-02-19T17:36:47.668Z,97993.59
2024-02-19T17:39:34.607Z,97991.75
2024-02-19T17:42:22.572Z,97996.09
2024-02-19T17:45:10.541Z,97999.59
2024-02-19T17:47:59.254Z,97984.63
2024-02-19T17:50:49.159Z,97973.97
2024-02-19T17:53:36.259Z,97976.63
2024-02-19T17:56:25.778Z,97981.94
2024-02-19T17:59:13.054Z,97981.28
2024-02-19T18:02:00.082Z,97979.63
2024-02-19T18:04:55.095Z,97985.94
2024-02-19T18:07:42.196Z,97984.13
2024-02-19T18:10:29.119Z,97991.94
2024-02-19T18:13:16.540Z,97981.28
2024-02-19T18:16:04.377Z,97984.13
2024-02-19T18:18:51.382Z,97972.63
2024-02-19T18:21:38.325Z,97971.78
2024-02-19T18:24:25.193Z,97987.75
2024-02-19T18:27:13.286Z,97973.47
2024-02-19T18:30:00.242Z,97970.13
2024-02-19T18:32:47.180Z,97964.81
2024-02-19T18:35:35.199Z,97967.47
2024-02-19T18:38:22.158Z,97971.97
2024-02-19T18:41:09.064Z,97965.81
2024-02-19T18:43:58.211Z,97964.13
2024-02-19T18:46:45.237Z,97956.16
2024-02-19T18:49:33.226Z,97951.00
2024-02-19T18:52:21.169Z,97944.03
2024-02-19T18:55:09.159Z,97947.66
2024-02-19T18:57:59.120Z,97943.34
2024-02-19T19:00:46.121Z,97938.22
2024-02-19T19:03:33.418Z,97932.22
2024-02-19T19:06:23.639Z,97933.03
2024-02-19T19:09:11.536Z,97937.53
2024-02-19T19:11:58.423Z,97936.72
2024-02-19T19:14:45.347Z,97934.03
2024-02-19T19:17:32.603Z,97931.38
2024-02-19T19:20:19.744Z,97929.72
2024-02-19T19:23:06.837Z,97934.22
2024-02-19T19:25:54.093Z,97944.88
2024-02-19T19:28:41.400Z,97942.38
2024-02-19T19:31:28.345Z,97934.56
2024-02-19T19:34:18.276Z,97939.88
2024-02-19T19:37:05.261Z,97933.88
2024-02-19T19:39:52.431Z,97929.75
2024-02-19T19:42:44.605Z,97934.06
2024-02-19T19:45:32.032Z,97928.06
2024-02-19T19:48:20.003Z,97931.56
2024-02-19T19:51:06.871Z,97931.75
2024-02-19T19:53:53.689Z,97932.75
2024-02-19T19:56:41.804Z,97923.25
2024-02-19T19:59:29.416Z,97926.75
2024-02-19T20:02:16.554Z,97920.78
2024-02-19T20:05:05.211Z,97915.59
2024-02-19T20:07:52.325Z,97915.78
2024-02-19T20:10:40.497Z,97917.78
2024-02-19T20:13:28.194Z,97916.28
2024-02-19T20:16:15.477Z,97917.13
2024-02-19T20:19:02.494Z,97921.78
2024-02-19T20:21:49.420Z,97929.94
2024-02-19T20:24:36.272Z,97926.41
2024-02-19T20:27:23.339Z,97921.28
2024-02-19T20:30:12.217Z,97930.91
2024-02-19T20:32:59.243Z,97927.59
2024-02-19T20:35:46.386Z,97924.94
2024-02-19T20:38:33.264Z,97929.59
2024-02-19T20:41:20.098Z,97935.09
2024-02-19T20:44:06.966Z,97940.53
2024-02-19T20:46:53.831Z,97937.06
2024-02-19T20:49:43.085Z,97938.25
2024-02-19T20:52:30.183Z,97931.25
2024-02-19T20:55:17.286Z,97933.91
2024-02-19T20:58:04.314Z,97925.09
2024-02-19T21:00:51.298Z,97926.94
2024-02-19T21:03:43.279Z,97923.44
2024-02-19T21:06:36.836Z,97921.94
2024-02-19T21:09:24.226Z,97934.41
2024-02-19T21:12:11.091Z,97926.59
2024-02-19T21:14:58.179Z,97923.94
2024-02-19T21:17:45.092Z,97937.25
2024-02-19T21:20:32.113Z,97932.75
2024-02-19T21:23:19.163Z,97929.41
2024-02-19T21:26:06.097Z,97924.94
2024-02-19T21:28:53.111Z,97925.94
2024-02-19T21:31:40.935Z,97922.44
2024-02-19T21:34:28.004Z,97919.94
2024-02-19T21:37:15.091Z,97928.91
2024-02-19T21:40:02.480Z,97921.94
2024-02-19T21:42:49.427Z,97920.28
2024-02-19T21:45:37.120Z,97916.78
2024-02-19T21:48:24.377Z,97916.78
2024-02-19T21:51:11.506Z,97917.78
2024-02-19T21:53:58.428Z,97916.94
2024-02-19T21:56:45.247Z,97912.63
2024-02-19T21:59:32.115Z,97910.13
2024-02-19T22:02:19.008Z,97901.31
2024-02-19T22:05:06.526Z,97905.81
2024-02-19T22:07:53.375Z,97914.63
2024-02-19T22:10:40.332Z,97902.31
2024-02-19T22:13:27.408Z,97894.34
2024-02-19T22:16:14.688Z,97895.47
2024-02-19T22:19:01.657Z,97890.34
2024-02-19T22:21:48.566Z,97899.47
2024-02-19T22:24:35.458Z,97898.63
2024-02-19T22:27:22.828Z,97881.84
2024-02-19T22:30:10.341Z,97891.66
2024-02-19T22:32:57.274Z,97877.50
2024-02-19T22:35:44.226Z,97875.22
2024-02-19T22:38:31.119Z,97880.69
2024-02-19T22:41:18.003Z,97881.69
2024-02-19T22:44:05.008Z,97872.06
2024-02-19T22:46:51.844Z,97873.88
2024-02-19T22:49:39.695Z,97869.53
2024-02-19T22:52:27.178Z,97860.91
2024-02-19T22:55:14.188Z,97867.06
2024-02-19T22:58:01.159Z,97865.41
2024-02-19T23:00:50.206Z,97858.25
2024-02-19T23:03:37.521Z,97868.06
2024-02-19T23:06:24.433Z,97861.06
2024-02-19T23:09:11.347Z,97864.72
2024-02-19T23:11:58.183Z,97865.56
2024-02-19T23:14:45.017Z,97860.41
2024-02-19T23:17:32.157Z,97860.41
2024-02-19T23:20:19.578Z,97857.75
2024-02-19T23:23:06.947Z,97857.91
2024-02-19T23:25:55.268Z,97854.44
2024-02-19T23:28:42.844Z,97865.22
2024-02-19T23:31:30.155Z,97851.94
2024-02-19T23:34:17.365Z,97859.09
2024-02-19T23:37:04.525Z,97855.56
2024-02-19T23:39:51.388Z,97858.41
2024-02-19T23:42:38.276Z,97859.41
2024-02-19T23:45:25.106Z,97854.09
2024-02-19T23:48:12.049Z,97851.59
2024-02-19T23:50:59.299Z,97851.59
2024-02-19T23:53:46.738Z,97849.13
2024-02-19T23:56:33.564Z,97842.97
2024-02-19T23:59:20.492Z,97834.16
